Time;durP1;ratioP1;P1;durP2;ratioP2;P2;SDS_P1;SDS_P2;PMS_P1;PMS_P2;Temp;Humidity;BMP_temperature;BMP_pressure;BME280_temperature;BME280_humidity;BME280_pressure;Samples;Min_cycle;Max_cycle;Signal;HPM_P1;HPM_P2
2022/10/28 00:01:21;;;;;;;20.48;4.68;;;14.60;99.90;;;;;;5015610;28;20041;-59
2022/10/28 00:03:54;;;;;;;22.98;5.20;;;14.60;99.90;;;;;;5011586;28;20501;-58
2022/10/28 00:06:29;;;;;;;16.33;4.82;;;14.60;99.90;;;;;;5022344;28;21484;-58
2022/10/28 00:08:57;;;;;;;15.48;4.75;;;14.60;99.90;;;;;;5017744;28;20090;-61
2022/10/28 00:11:31;;;;;;;12.48;4.35;;;14.60;99.90;;;;;;5024160;28;20041;-70
2022/10/28 00:14:02;;;;;;;17.95;5.20;;;14.50;99.90;;;;;;5016994;28;20046;-66
2022/10/28 00:16:33;;;;;;;27.50;5.38;;;14.50;99.90;;;;;;5009421;28;20052;-65
2022/10/28 00:19:03;;;;;;;20.33;4.95;;;14.50;99.90;;;;;;5020613;28;20064;-61
2022/10/28 00:21:34;;;;;;;25.10;6.00;;;14.50;99.90;;;;;;5016551;28;20042;-59
2022/10/28 00:24:02;;;;;;;22.15;5.82;;;14.50;99.90;;;;;;5008834;28;20049;-70
2022/10/28 00:26:31;;;;;;;19.27;5.82;;;14.50;99.90;;;;;;5008159;28;20038;-59
2022/10/28 00:29:16;;;;;;;23.55;6.00;;;14.50;99.90;;;;;;5012717;28;20045;-61
2022/10/28 00:31:46;;;;;;;25.92;6.88;;;14.60;99.90;;;;;;5013789;28;20053;-59
2022/10/28 00:34:18;;;;;;;21.27;6.05;;;14.60;99.90;;;;;;5022883;28;20045;-58
2022/10/28 00:36:47;;;;;;;20.95;5.78;;;14.60;99.90;;;;;;5020423;28;20045;-58
2022/10/28 00:39:17;;;;;;;15.02;5.07;;;14.60;99.90;;;;;;5017297;28;20077;-58
2022/10/28 00:41:56;;;;;;;20.48;5.50;;;14.60;99.90;;;;;;5010047;28;20501;-59
2022/10/28 00:44:59;;;;;;;21.80;6.28;;;14.60;99.90;;;;;;5013451;28;20053;-59
2022/10/28 00:47:51;;;;;;;20.52;5.95;;;14.60;99.90;;;;;;5020330;28;20046;-59
2022/10/28 00:50:47;;;;;;;23.83;5.97;;;14.60;99.90;;;;;;5008300;28;20042;-60
2022/10/28 00:53:27;;;;;;;34.13;6.95;;;14.50;99.90;;;;;;5012355;28;20053;-61
2022/10/28 00:55:59;;;;;;;19.02;5.47;;;14.50;99.90;;;;;;5017735;28;20501;-59
2022/10/28 00:58:27;;;;;;;18.55;5.50;;;14.50;99.90;;;;;;5022600;28;20053;-61
2022/10/28 01:00:55;;;;;;;25.02;6.60;;;14.50;99.90;;;;;;5016548;28;20052;-59
2022/10/28 01:03:23;;;;;;;27.10;6.45;;;14.50;99.90;;;;;;5006324;28;20050;-59
2022/10/28 01:05:52;;;;;;;23.55;6.70;;;14.50;99.90;;;;;;5016571;28;20041;-58
2022/10/28 01:08:19;;;;;;;17.77;6.95;;;14.50;99.90;;;;;;5018634;28;20488;-59
2022/10/28 01:11:19;;;;;;;24.70;6.95;;;13.90;99.90;;;;;;5021936;28;20037;-58
2022/10/28 01:14:08;;;;;;;21.00;7.53;;;14.40;99.90;;;;;;5020123;28;20683;-60
2022/10/28 01:16:41;;;;;;;21.10;6.70;;;14.50;99.90;;;;;;5007208;28;20343;-59
2022/10/28 01:19:27;;;;;;;22.80;7.55;;;14.50;99.90;;;;;;5026248;28;20072;-59
2022/10/28 01:22:05;;;;;;;16.48;6.28;;;14.50;99.90;;;;;;5025651;28;20049;-59
2022/10/28 01:24:32;;;;;;;29.30;7.72;;;14.50;99.90;;;;;;5008204;28;20050;-59
2022/10/28 01:27:13;;;;;;;28.15;7.05;;;14.60;99.90;;;;;;5006977;28;20041;-60
2022/10/28 01:30:15;;;;;;;14.43;6.38;;;14.60;99.90;;;;;;5021022;28;20057;-65
2022/10/28 01:33:07;;;;;;;12.20;6.63;;;14.50;99.90;;;;;;5015339;28;20041;-59
2022/10/28 01:36:02;;;;;;;20.00;6.32;;;14.70;99.90;;;;;;5009286;28;20056;-59
2022/10/28 01:38:46;;;;;;;22.75;7.90;;;14.70;99.90;;;;;;5020554;28;20512;-64
2022/10/28 01:41:16;;;;;;;19.75;6.43;;;14.60;99.90;;;;;;5018987;28;20060;-74
2022/10/28 01:43:57;;;;;;;23.25;6.32;;;14.60;99.90;;;;;;5013546;28;20125;-70
2022/10/28 01:46:38;;;;;;;20.67;6.38;;;14.60;99.90;;;;;;5014802;28;20045;-62
2022/10/28 01:49:21;;;;;;;20.65;6.95;;;14.60;99.90;;;;;;5022889;28;20046;-58
2022/10/28 01:51:55;;;;;;;17.17;5.20;;;14.60;99.90;;;;;;5013897;28;20056;-59
2022/10/28 01:54:26;;;;;;;16.30;6.05;;;14.60;99.90;;;;;;5033676;28;20033;-60
2022/10/28 01:56:57;;;;;;;22.15;5.57;;;14.60;99.90;;;;;;5026188;28;20065;-57
2022/10/28 01:59:28;;;;;;;15.25;5.45;;;14.60;99.90;;;;;;5016434;28;20037;-57
2022/10/28 02:01:56;;;;;;;19.33;6.05;;;14.60;99.90;;;;;;5032425;28;20060;-57
2022/10/28 02:04:24;;;;;;;17.98;5.63;;;14.60;99.90;;;;;;5030273;28;20037;-57
2022/10/28 02:06:57;;;;;;;17.25;6.40;;;14.50;99.90;;;;;;5033324;28;20056;-57
2022/10/28 02:09:27;;;;;;;21.60;5.00;;;14.50;99.90;;;;;;5034328;28;20041;-58
2022/10/28 02:12:24;;;;;;;16.98;5.72;;;14.60;99.90;;;;;;5021839;28;20048;-57
2022/10/28 02:15:23;;;;;;;20.27;5.65;;;14.60;99.90;;;;;;5013706;28;20050;-57
2022/10/28 02:18:32;;;;;;;18.17;5.25;;;14.60;99.90;;;;;;5022803;28;20484;-57
2022/10/28 02:21:16;;;;;;;21.90;5.93;;;14.60;99.90;;;;;;5034110;28;20050;-57
2022/10/28 02:23:51;;;;;;;18.17;5.18;;;14.60;99.90;;;;;;5034046;28;20042;-57
2022/10/28 02:26:31;;;;;;;14.05;5.43;;;14.60;99.90;;;;;;5034015;28;20049;-58
2022/10/28 02:29:16;;;;;;;19.83;5.47;;;14.60;99.90;;;;;;5033951;28;20045;-57
2022/10/28 02:31:54;;;;;;;22.90;5.05;;;14.60;99.90;;;;;;5030253;28;20041;-57
2022/10/28 02:34:30;;;;;;;13.95;5.03;;;14.60;99.90;;;;;;5030748;28;20117;-57
2022/10/28 02:37:02;;;;;;;18.02;5.22;;;14.60;99.90;;;;;;5033769;28;20041;-57
2022/10/28 02:39:37;;;;;;;18.77;5.07;;;14.60;99.90;;;;;;5033590;28;20111;-57
2022/10/28 02:42:11;;;;;;;13.75;5.43;;;14.50;99.90;;;;;;5033667;28;20056;-57
2022/10/28 02:44:43;;;;;;;9.98;3.70;;;14.50;99.90;;;;;;5033663;28;20049;-57
2022/10/28 02:47:17;;;;;;;17.73;4.18;;;14.50;99.90;;;;;;5033084;28;20054;-59
2022/10/28 02:49:51;;;;;;;11.30;4.20;;;14.50;99.90;;;;;;5033342;28;20037;-58
2022/10/28 02:52:21;;;;;;;12.27;3.55;;;14.50;99.90;;;;;;5033450;28;20060;-58
2022/10/28 02:54:56;;;;;;;;;;;14.60;99.90;;;;;;5033716;28;20053;-59
2022/10/28 02:57:26;;;;;;;22.70;4.57;;;14.60;99.90;;;;;;5033457;28;20395;-57
2022/10/28 02:59:57;;;;;;;13.10;4.10;;;14.70;99.90;;;;;;5033037;28;20505;-58
2022/10/28 03:02:26;;;;;;;11.85;3.55;;;14.70;99.90;;;;;;5032713;28;20033;-57
2022/10/28 03:04:53;;;;;;;14.85;4.65;;;14.70;99.90;;;;;;5025234;28;20056;-63
2022/10/28 03:07:21;;;;;;;18.15;3.95;;;14.70;99.90;;;;;;5033140;28;20042;-57
2022/10/28 03:09:50;;;;;;;9.05;3.53;;;14.70;99.90;;;;;;5033004;28;20037;-58
2022/10/28 03:12:17;;;;;;;15.05;4.57;;;14.70;99.90;;;;;;5033109;28;20050;-58
2022/10/28 03:14:45;;;;;;;22.70;4.05;;;14.70;99.90;;;;;;5033058;28;20421;-61
2022/10/28 03:17:13;;;;;;;15.35;4.32;;;14.70;99.90;;;;;;5032965;28;20053;-59
2022/10/28 03:19:41;;;;;;;9.32;3.90;;;14.70;99.90;;;;;;5032998;28;20061;-64
2022/10/28 03:22:08;;;;;;;12.70;3.95;;;14.70;99.90;;;;;;5032799;28;20099;-64
2022/10/28 03:24:36;;;;;;;13.65;4.22;;;14.70;99.90;;;;;;5031605;28;20049;-59
2022/10/28 03:27:04;;;;;;;11.32;4.20;;;14.70;99.90;;;;;;5032957;28;20417;-60
2022/10/28 03:29:31;;;;;;;7.45;3.88;;;14.70;99.90;;;;;;5032506;28;20057;-58
2022/10/28 03:31:59;;;;;;;15.93;4.60;;;14.70;99.90;;;;;;5032550;28;20053;-65
2022/10/28 03:34:26;;;;;;;16.20;3.70;;;14.70;99.90;;;;;;5032788;28;20056;-63
2022/10/28 03:36:54;;;;;;;18.13;4.88;;;14.70;99.90;;;;;;5032520;28;20037;-65
2022/10/28 03:39:21;;;;;;;15.93;4.05;;;14.70;99.90;;;;;;5032412;28;20408;-62
2022/10/28 03:41:49;;;;;;;9.35;4.30;;;14.70;99.90;;;;;;5032420;28;20405;-65
2022/10/28 03:44:16;;;;;;;10.82;4.15;;;14.60;99.90;;;;;;5032404;28;20049;-61
2022/10/28 03:46:44;;;;;;;18.70;5.07;;;14.60;99.90;;;;;;5032371;28;20493;-59
2022/10/28 03:49:11;;;;;;;17.58;6.53;;;14.60;99.90;;;;;;5030842;28;20060;-58
2022/10/28 03:51:39;;;;;;;13.77;4.70;;;14.60;99.90;;;;;;5032224;28;20045;-58
2022/10/28 03:54:06;;;;;;;15.98;4.30;;;14.60;99.90;;;;;;5032273;28;20049;-58
2022/10/28 03:56:34;;;;;;;9.52;4.57;;;14.60;99.90;;;;;;5032230;28;20393;-58
2022/10/28 03:59:02;;;;;;;13.50;5.45;;;14.50;99.90;;;;;;5032283;28;20072;-58
2022/10/28 04:01:29;;;;;;;18.73;5.85;;;14.50;99.90;;;;;;5032030;28;20048;-61
2022/10/28 04:03:57;;;;;;;13.38;4.55;;;;;;;;;;5031999;28;20401;-60
2022/10/28 04:06:25;;;;;;;16.63;5.05;;;14.50;99.90;;;;;;5031000;28;20050;-58
2022/10/28 04:08:52;;;;;;;11.75;4.90;;;14.50;99.90;;;;;;5032060;28;20478;-58
2022/10/28 04:11:20;;;;;;;12.27;4.68;;;14.50;99.90;;;;;;5030845;28;20054;-61
2022/10/28 04:13:48;;;;;;;13.80;4.85;;;14.50;99.90;;;;;;5031658;28;20050;-60
2022/10/28 04:16:15;;;;;;;17.08;5.00;;;14.50;99.90;;;;;;5031384;28;20397;-60
2022/10/28 04:18:43;;;;;;;19.50;4.68;;;14.50;99.90;;;;;;5032830;28;20057;-62
2022/10/28 04:21:11;;;;;;;10.85;4.18;;;14.50;99.90;;;;;;5032485;28;20400;-59
2022/10/28 04:23:38;;;;;;;20.45;4.57;;;14.60;99.90;;;;;;5031914;28;20516;-63
2022/10/28 04:26:06;;;;;;;12.52;3.70;;;14.60;99.90;;;;;;5031583;28;20532;-58
2022/10/28 04:28:33;;;;;;;10.90;3.60;;;14.60;99.90;;;;;;5031905;28;20052;-60
2022/10/28 04:31:01;;;;;;;13.00;4.97;;;14.60;99.90;;;;;;5031531;28;20049;-60
2022/10/28 04:33:29;;;;;;;12.27;3.75;;;14.60;99.90;;;;;;5031674;28;20472;-58
2022/10/28 04:35:56;;;;;;;12.20;4.28;;;14.60;99.90;;;;;;5031557;28;20049;-61
2022/10/28 04:38:24;;;;;;;8.95;3.58;;;14.60;99.90;;;;;;5031619;28;20065;-58
2022/10/28 04:40:56;;;;;;;9.38;3.50;;;14.60;99.90;;;;;;5031576;28;20045;-58
2022/10/28 04:43:24;;;;;;;13.57;3.90;;;14.70;99.90;;;;;;5031629;28;20046;-57
2022/10/28 04:45:51;;;;;;;10.73;3.33;;;14.70;99.90;;;;;;5031034;28;20050;-58
2022/10/28 04:48:20;;;;;;;12.90;3.60;;;14.70;99.90;;;;;;5014352;28;20037;-59
2022/10/28 04:50:47;;;;;;;13.02;3.70;;;14.70;99.90;;;;;;5008496;28;20493;-58
2022/10/28 04:53:15;;;;;;;7.90;4.10;;;14.70;99.90;;;;;;5008593;28;20046;-58
2022/10/28 04:55:42;;;;;;;14.20;2.85;;;14.80;99.90;;;;;;5008349;28;20045;-58
2022/10/28 04:58:10;;;;;;;12.88;3.20;;;14.80;99.90;;;;;;5016481;28;20505;-58
2022/10/28 05:00:38;;;;;;;6.80;2.50;;;14.80;99.90;;;;;;5026430;28;20052;-58
2022/10/28 05:03:05;;;;;;;10.68;3.17;;;14.90;99.90;;;;;;5011993;28;20045;-58
2022/10/28 05:05:33;;;;;;;7.07;3.05;;;14.90;99.90;;;;;;5021559;28;20508;-58
2022/10/28 05:08:01;;;;;;;12.80;2.85;;;14.90;99.90;;;;;;5024608;28;20056;-61
2022/10/28 05:10:30;;;;;;;17.48;3.45;;;14.90;99.90;;;;;;5024460;28;20137;-59
2022/10/28 05:12:58;;;;;;;9.57;2.92;;;15.00;99.90;;;;;;5024325;28;20519;-58
2022/10/28 05:15:26;;;;;;;8.70;3.05;;;15.00;99.90;;;;;;5023535;28;20404;-59
2022/10/28 05:17:53;;;;;;;9.88;3.00;;;15.00;99.90;;;;;;5022510;28;20375;-61
2022/10/28 05:20:22;;;;;;;9.13;2.95;;;15.00;99.90;;;;;;5008198;28;20046;-59
2022/10/28 05:22:53;;;;;;;7.78;2.40;;;15.10;99.90;;;;;;5015919;28;20053;-58
2022/10/28 05:25:22;;;;;;;14.00;3.20;;;15.10;99.90;;;;;;5024326;28;20041;-60
2022/10/28 05:27:50;;;;;;;13.75;2.90;;;15.10;99.90;;;;;;5031325;28;20049;-58
2022/10/28 05:30:18;;;;;;;8.15;2.50;;;15.10;99.90;;;;;;5031559;28;20500;-58
2022/10/28 05:32:45;;;;;;;12.18;2.47;;;15.10;99.90;;;;;;5028315;28;20061;-63
2022/10/28 05:35:18;;;;;;;9.55;2.60;;;15.20;99.90;;;;;;5011998;28;20429;-60
2022/10/28 05:37:46;;;;;;;13.15;3.15;;;15.20;99.90;;;;;;5016296;28;20054;-69
2022/10/28 05:40:14;;;;;;;8.75;3.22;;;15.20;99.90;;;;;;5008831;28;20340;-72
2022/10/28 05:42:42;;;;;;;10.13;3.08;;;15.20;99.90;;;;;;5018198;28;20045;-71
2022/10/28 05:45:10;;;;;;;11.02;2.58;;;15.30;99.90;;;;;;5028960;28;20045;-73
2022/10/28 05:47:43;;;;;;;5.82;2.88;;;15.30;99.90;;;;;;5025659;28;20536;-69
2022/10/28 05:50:12;;;;;;;10.32;2.10;;;15.30;99.90;;;;;;5008619;28;20053;-61
2022/10/28 05:52:43;;;;;;;10.38;2.92;;;15.30;99.90;;;;;;5027144;28;20053;-60
2022/10/28 05:55:11;;;;;;;8.77;2.63;;;15.20;99.90;;;;;;5030292;28;20416;-63
2022/10/28 05:57:38;;;;;;;9.63;2.63;;;15.20;99.90;;;;;;5020768;28;20048;-63
2022/10/28 06:00:07;;;;;;;8.00;2.00;;;15.20;99.90;;;;;;5009369;28;20339;-71
2022/10/28 06:02:41;;;;;;;9.20;2.20;;;15.20;99.90;;;;;;5010790;28;20042;-57
2022/10/28 06:05:10;;;;;;;13.52;2.83;;;15.10;99.90;;;;;;5010338;28;20042;-64
2022/10/28 06:07:39;;;;;;;11.05;2.70;;;15.10;99.90;;;;;;5023296;28;20054;-64
2022/10/28 06:10:08;;;;;;;8.68;2.75;;;15.10;99.90;;;;;;5017755;28;20517;-58
2022/10/28 06:12:36;;;;;;;9.10;2.20;;;15.10;99.90;;;;;;5020351;28;20042;-63
2022/10/28 06:15:04;;;;;;;14.02;2.95;;;15.10;99.90;;;;;;5013971;28;20077;-57
2022/10/28 06:17:32;;;;;;;8.10;2.55;;;15.10;99.90;;;;;;5020044;28;20056;-59
2022/10/28 06:19:59;;;;;;;16.27;4.03;;;15.00;99.90;;;;;;5011587;28;20045;-73
2022/10/28 06:22:27;;;;;;;8.93;2.58;;;15.00;99.90;;;;;;5016862;28;20049;-69
2022/10/28 06:24:54;;;;;;;12.50;3.30;;;15.00;99.90;;;;;;5017504;28;20481;-72
2022/10/28 06:27:22;;;;;;;7.43;2.38;;;15.00;99.90;;;;;;5024710;28;20645;-71
2022/10/28 06:29:50;;;;;;;9.90;3.53;;;14.90;99.90;;;;;;5028741;28;20061;-71
2022/10/28 06:32:17;;;;;;;13.95;3.15;;;14.90;99.90;;;;;;5024841;28;20061;-68
2022/10/28 06:34:45;;;;;;;8.10;2.90;;;15.00;99.90;;;;;;5019095;28;20061;-67
2022/10/28 06:37:13;;;;;;;9.32;3.63;;;15.00;99.90;;;;;;5024239;28;20061;-69
2022/10/28 06:39:42;;;;;;;14.02;3.15;;;15.00;99.90;;;;;;5022481;28;20050;-60
2022/10/28 06:42:10;;;;;;;13.68;2.80;;;15.00;99.90;;;;;;5015954;28;20042;-58
2022/10/28 06:44:37;;;;;;;11.55;3.35;;;15.00;99.90;;;;;;5016240;28;20498;-60
2022/10/28 06:47:05;;;;;;;13.68;5.28;;;15.00;99.90;;;;;;5026213;28;20057;-68
2022/10/28 06:49:33;;;;;;;4.57;1.83;;;15.10;99.90;;;;;;5016707;28;20046;-62
2022/10/28 06:52:01;;;;;;;11.25;2.50;;;15.20;99.90;;;;;;5019541;28;20590;-58
2022/10/28 06:54:28;;;;;;;9.52;2.70;;;15.20;99.90;;;;;;5017473;28;20060;-57
2022/10/28 06:56:56;;;;;;;8.00;2.75;;;15.30;99.90;;;;;;5026167;28;20047;-58
2022/10/28 06:59:24;;;;;;;7.70;2.42;;;15.40;99.90;;;;;;5028014;28;20064;-58
2022/10/28 07:01:52;;;;;;;10.10;2.40;;;;;;;;;;5020915;28;20382;-62
2022/10/28 07:04:20;;;;;;;8.63;2.70;;;15.50;99.90;;;;;;5021882;28;20056;-62
2022/10/28 07:06:47;;;;;;;10.90;3.20;;;15.60;99.90;;;;;;5019272;28;20042;-59
2022/10/28 07:09:18;;;;;;;10.70;3.00;;;15.60;99.90;;;;;;5010662;28;20069;-60
2022/10/28 07:11:49;;;;;;;10.65;2.72;;;15.50;99.90;;;;;;5011206;28;20050;-61
2022/10/28 07:14:21;;;;;;;4.43;1.77;;;15.50;99.90;;;;;;5016103;28;20393;-62
2022/10/28 07:16:49;;;;;;;7.03;2.03;;;15.40;99.90;;;;;;5007884;28;20050;-62
2022/10/28 07:19:17;;;;;;;5.45;1.50;;;15.30;99.90;;;;;;5018896;28;20486;-62
2022/10/28 07:21:49;;;;;;;3.22;1.40;;;15.30;99.90;;;;;;4995558;28;20069;-62
2022/10/28 07:24:16;;;;;;;2.75;1.55;;;15.20;99.90;;;;;;5016116;28;20212;-63
2022/10/28 07:26:48;;;;;;;7.15;1.55;;;15.20;99.90;;;;;;5015971;28;20053;-61
2022/10/28 07:29:20;;;;;;;3.70;0.77;;;15.10;99.90;;;;;;5016832;28;20060;-63
2022/10/28 07:31:48;;;;;;;4.85;0.88;;;15.00;99.90;;;;;;5025082;28;20041;-67
2022/10/28 07:34:16;;;;;;;9.23;1.30;;;14.90;99.90;;;;;;5019348;28;20516;-63
2022/10/28 07:36:43;;;;;;;6.65;0.93;;;14.80;99.90;;;;;;5019314;28;20053;-60
2022/10/28 07:39:11;;;;;;;2.67;1.17;;;14.70;99.90;;;;;;5008227;28;20050;-62
2022/10/28 07:41:39;;;;;;;4.78;1.25;;;14.70;99.90;;;;;;5011824;28;20294;-61
2022/10/28 07:44:06;;;;;;;2.58;0.98;;;14.70;99.90;;;;;;5016393;28;20042;-60
2022/10/28 07:46:34;;;;;;;4.63;1.05;;;14.60;99.90;;;;;;5016721;28;20430;-66
2022/10/28 07:49:02;;;;;;;2.65;0.73;;;14.50;99.90;;;;;;5019934;28;20433;-61
2022/10/28 07:51:30;;;;;;;4.80;1.10;;;14.50;99.90;;;;;;5011172;28;20043;-61
2022/10/28 07:53:58;;;;;;;9.13;0.85;;;14.50;99.90;;;;;;5015318;28;20045;-61
2022/10/28 07:56:26;;;;;;;5.07;0.63;;;14.40;99.90;;;;;;5005029;28;20060;-61
2022/10/28 07:58:53;;;;;;;2.15;0.40;;;14.40;99.90;;;;;;5012095;28;20050;-60
2022/10/28 08:01:21;;;;;;;2.63;0.55;;;14.40;99.90;;;;;;5021310;28;20041;-61
2022/10/28 08:03:49;;;;;;;3.03;0.50;;;14.40;99.90;;;;;;5028672;28;20049;-61
2022/10/28 08:06:19;;;;;;;4.45;0.95;;;14.40;99.90;;;;;;5027469;28;20041;-61
2022/10/28 08:08:51;;;;;;;1.67;0.20;;;14.40;99.90;;;;;;5028735;28;20053;-60
2022/10/28 08:11:23;;;;;;;1.63;0.73;;;14.40;99.90;;;;;;5027871;28;20523;-66
2022/10/28 08:13:51;;;;;;;3.03;0.57;;;14.40;99.90;;;;;;5025212;28;20489;-68
2022/10/28 08:16:19;;;;;;;5.97;1.00;;;14.40;99.90;;;;;;5024762;28;20068;-63
2022/10/28 08:18:47;;;;;;;7.93;0.85;;;14.40;99.90;;;;;;5028383;28;20072;-60
2022/10/28 08:21:15;;;;;;;5.97;0.40;;;14.30;99.90;;;;;;5025040;28;20049;-71
2022/10/28 08:23:45;;;;;;;2.35;0.63;;;14.40;99.90;;;;;;5022942;28;20060;-71
2022/10/28 08:26:15;;;;;;;1.52;0.55;;;14.40;99.90;;;;;;5028404;28;20041;-69
2022/10/28 08:28:42;;;;;;;3.25;0.25;;;14.40;99.90;;;;;;5026820;28;20045;-70
2022/10/28 08:31:11;;;;;;;1.90;0.40;;;14.40;99.90;;;;;;5028367;28;20060;-70
2022/10/28 08:33:43;;;;;;;4.38;0.73;;;14.30;99.90;;;;;;5027962;28;20049;-67
2022/10/28 08:36:12;;;;;;;1.75;0.30;;;14.40;99.90;;;;;;5027840;28;20045;-62
2022/10/28 08:38:42;;;;;;;1.20;0.28;;;14.40;99.90;;;;;;5027851;28;20693;-60
2022/10/28 08:41:12;;;;;;;4.60;1.25;;;14.40;99.90;;;;;;5028408;28;20409;-61
2022/10/28 08:43:48;;;;;;;2.10;0.43;;;14.40;99.90;;;;;;5027921;28;20056;-60
2022/10/28 08:46:39;;;;;;;12.68;0.77;;;14.40;99.90;;;;;;5028011;28;20080;-60
2022/10/28 08:49:12;;;;;;;1.73;0.22;;;14.40;99.90;;;;;;5027873;28;20050;-62
2022/10/28 08:51:56;;;;;;;1.77;0.30;;;14.40;99.90;;;;;;5024689;28;20050;-65
2022/10/28 08:54:31;;;;;;;3.25;0.60;;;14.30;99.90;;;;;;5027928;28;20060;-62
2022/10/28 08:57:01;;;;;;;3.10;0.30;;;14.20;99.90;;;;;;5028302;28;20488;-62
2022/10/28 08:59:39;;;;;;;1.80;0.30;;;14.10;99.90;;;;;;5028137;28;20050;-64
2022/10/28 09:02:10;;;;;;;3.30;0.40;;;14.00;99.90;;;;;;5025904;28;20052;-60
2022/10/28 09:04:41;;;;;;;2.03;0.35;;;13.90;99.90;;;;;;5027429;28;20065;-66
2022/10/28 09:07:20;;;;;;;4.18;0.45;;;13.80;99.90;;;;;;5013134;28;20045;-61
2022/10/28 09:09:50;;;;;;;2.53;0.10;;;13.70;99.90;;;;;;5028187;28;20061;-63
2022/10/28 09:12:44;;;;;;;2.00;0.13;;;13.70;99.90;;;;;;5027656;28;20053;-65
2022/10/28 09:15:16;;;;;;;5.68;0.47;;;13.70;99.90;;;;;;5026704;28;20493;-63
2022/10/28 09:17:54;;;;;;;1.15;0.20;;;13.70;99.90;;;;;;5027137;28;20048;-63
2022/10/28 09:20:33;;;;;;;2.40;0.25;;;13.80;99.90;;;;;;5028164;28;20041;-63
2022/10/28 09:23:24;;;;;;;3.28;0.45;;;13.90;99.90;;;;;;5023796;28;20406;-60
2022/10/28 09:26:11;;;;;;;0.50;0.20;;;14.00;99.90;;;;;;5028353;28;20049;-62
2022/10/28 09:28:53;;;;;;;2.20;0.10;;;14.20;99.90;;;;;;5027539;28;20516;-60
2022/10/28 09:31:34;;;;;;;0.68;0.20;;;14.20;99.90;;;;;;5027520;28;20052;-62
2022/10/28 09:34:25;;;;;;;0.98;0.30;;;14.20;99.90;;;;;;5027667;28;20069;-61
2022/10/28 09:37:02;;;;;;;0.80;0.15;;;14.30;99.90;;;;;;5025203;28;20041;-62
2022/10/28 09:39:45;;;;;;;1.50;0.10;;;14.30;99.90;;;;;;5027340;28;20049;-64
2022/10/28 09:42:22;;;;;;;2.67;0.17;;;14.40;99.90;;;;;;5027454;28;20045;-64
2022/10/28 09:45:01;;;;;;;1.80;0.30;;;14.40;99.90;;;;;;5027503;28;20053;-65
2022/10/28 09:47:44;;;;;;;1.70;0.17;;;14.40;99.90;;;;;;5027962;28;20057;-60
2022/10/28 09:50:21;;;;;;;0.85;0.10;;;14.50;99.90;;;;;;5027729;28;20052;-61
2022/10/28 09:53:02;;;;;;;1.95;0.13;;;14.60;99.90;;;;;;5025257;28;20045;-61
2022/10/28 09:55:31;;;;;;;0.20;0.05;;;14.60;99.90;;;;;;5027637;28;20515;-62
2022/10/28 09:58:01;;;;;;;0.10;0.10;;;14.60;99.90;;;;;;5027041;28;20045;-62
2022/10/28 10:00:29;;;;;;;5.85;0.30;;;14.70;99.90;;;;;;5025633;28;20049;-63
2022/10/28 10:02:57;;;;;;;2.13;0.25;;;14.70;99.90;;;;;;5027323;28;20436;-66
2022/10/28 10:05:26;;;;;;;1.33;0.25;;;14.70;99.90;;;;;;5028004;28;20049;-64
2022/10/28 10:07:58;;;;;;;1.13;0.30;;;14.70;99.90;;;;;;5026095;28;20048;-62
2022/10/28 10:10:48;;;;;;;2.45;0.30;;;14.60;99.90;;;;;;5027536;28;20045;-62
2022/10/28 10:13:20;;;;;;;2.35;0.40;;;14.70;99.90;;;;;;5028195;28;20069;-62
2022/10/28 10:15:59;;;;;;;4.85;0.25;;;14.70;99.90;;;;;;5031294;28;20056;-62
2022/10/28 10:18:33;;;;;;;4.65;0.90;;;14.70;99.90;;;;;;5031145;28;20049;-63
2022/10/28 10:21:02;;;;;;;10.85;0.60;;;14.80;99.90;;;;;;5030990;28;20053;-70
2022/10/28 10:23:37;;;;;;;2.47;0.20;;;14.80;99.90;;;;;;5028629;28;20049;-62
2022/10/28 10:26:09;;;;;;;8.73;0.43;;;14.80;99.90;;;;;;5030895;28;20053;-61
2022/10/28 10:28:44;;;;;;;3.63;0.95;;;14.80;99.90;;;;;;5030840;28;20354;-62
2022/10/28 10:31:25;;;;;;;5.72;0.50;;;14.80;99.90;;;;;;5029543;28;20058;-62
2022/10/28 10:33:55;;;;;;;2.25;0.30;;;14.80;99.90;;;;;;5030341;28;20057;-61
2022/10/28 10:36:30;;;;;;;5.63;0.75;;;14.80;99.90;;;;;;5029589;28;20049;-61
2022/10/28 10:39:00;;;;;;;3.05;0.52;;;14.80;99.90;;;;;;5015633;28;20041;-61
2022/10/28 10:41:36;;;;;;;5.28;0.30;;;14.90;99.90;;;;;;5010902;28;20481;-62
2022/10/28 10:44:29;;;;;;;3.35;0.40;;;14.90;99.90;;;;;;5026610;28;20500;-62
2022/10/28 10:46:59;;;;;;;3.58;0.50;;;15.00;99.90;;;;;;5030396;28;20481;-61
2022/10/28 10:49:36;;;;;;;6.47;0.77;;;15.00;99.90;;;;;;5030381;28;20059;-62
2022/10/28 10:52:21;;;;;;;7.82;0.65;;;15.00;99.90;;;;;;5029084;28;20048;-62
2022/10/28 10:55:17;;;;;;;2.00;0.45;;;15.10;99.90;;;;;;5009473;28;20045;-61
2022/10/28 10:57:46;;;;;;;4.93;0.45;;;15.10;99.90;;;;;;5014434;28;20049;-62
2022/10/28 11:00:18;;;;;;;2.28;0.50;;;15.10;99.90;;;;;;5030311;28;20485;-61
2022/10/28 11:02:46;;;;;;;2.70;0.40;;;15.20;99.90;;;;;;5029881;28;20527;-61
2022/10/28 11:05:21;;;;;;;3.85;0.40;;;15.30;99.90;;;;;;5030369;28;20049;-63
2022/10/28 11:07:57;;;;;;;4.50;0.70;;;15.50;99.90;;;;;;5026595;28;20049;-66
2022/10/28 11:10:28;;;;;;;5.07;0.50;;;15.60;99.90;;;;;;5010261;28;20057;-69
2022/10/28 11:13:04;;;;;;;5.05;0.70;;;15.80;99.90;;;;;;5016796;28;20496;-62
2022/10/28 11:15:32;;;;;;;7.97;0.95;;;15.90;99.90;;;;;;5029796;28;20076;-61
2022/10/28 11:18:07;;;;;;;2.80;0.90;;;16.00;99.90;;;;;;5029702;28;20630;-62
2022/10/28 11:20:50;;;;;;;1.75;0.40;;;16.20;99.90;;;;;;5029947;28;20400;-67
2022/10/28 11:23:33;;;;;;;3.13;0.40;;;16.30;99.90;;;;;;5027743;28;20041;-61
2022/10/28 11:26:05;;;;;;;9.55;0.73;;;16.50;99.90;;;;;;5029906;28;20393;-66
2022/10/28 11:28:32;;;;;;;3.90;0.45;;;16.80;99.90;;;;;;5029670;28;20046;-64
2022/10/28 11:31:12;;;;;;;3.72;0.57;;;16.80;99.90;;;;;;5029912;28;20076;-61
2022/10/28 11:33:46;;;;;;;2.13;0.30;;;16.90;99.90;;;;;;5029465;28;20054;-61
2022/10/28 11:36:58;;;;;;;2.35;0.98;;;16.80;99.90;;;;;;5029525;28;20041;-64
2022/10/28 11:39:32;;;;;;;6.07;0.82;;;16.40;99.90;;;;;;5013745;28;20054;-60
2022/10/28 11:42:54;;;;;;;1.55;0.30;;;16.40;99.90;;;;;;5009840;28;20049;-59
2022/10/28 11:45:29;;;;;;;3.30;0.40;;;16.10;99.90;;;;;;5026371;28;20053;-63
2022/10/28 11:48:25;;;;;;;3.90;0.60;;;15.90;99.90;;;;;;5015921;28;20057;-63
2022/10/28 11:51:07;;;;;;;1.88;0.50;;;16.30;99.90;;;;;;5028840;28;20041;-62
2022/10/28 11:53:44;;;;;;;2.72;0.50;;;16.20;99.90;;;;;;5023878;28;20552;-68
2022/10/28 11:56:40;;;;;;;3.08;0.40;;;16.50;99.90;;;;;;5008539;28;20493;-65
2022/10/28 11:59:27;;;;;;;4.10;0.45;;;16.80;99.90;;;;;;5025415;28;20045;-68
2022/10/28 12:02:26;;;;;;;3.08;0.60;;;17.20;99.90;;;;;;5028845;28;20053;-60
2022/10/28 12:05:13;;;;;;;1.48;0.50;;;17.40;99.90;;;;;;5008741;28;20054;-60
2022/10/28 12:08:02;;;;;;;3.65;0.68;;;17.50;99.90;;;;;;5022547;28;20053;-60
2022/10/28 12:10:36;;;;;;;1.58;0.50;;;17.50;99.90;;;;;;5009505;28;20046;-69
2022/10/28 12:13:13;;;;;;;2.72;0.40;;;17.60;99.90;;;;;;5016970;28;20049;-70
2022/10/28 12:16:03;;;;;;;5.22;0.60;;;17.70;99.90;;;;;;5028657;28;20045;-69
2022/10/28 12:18:40;;;;;;;3.47;0.60;;;17.70;99.90;;;;;;5028701;28;20063;-68
2022/10/28 12:21:18;;;;;;;1.40;0.43;;;17.60;99.90;;;;;;5028892;28;20481;-70
2022/10/28 12:23:47;;;;;;;2.47;0.40;;;17.50;99.90;;;;;;5021195;28;20045;-68
2022/10/28 12:26:18;;;;;;;3.67;0.85;;;17.40;99.90;;;;;;5007874;28;20050;-69
2022/10/28 12:28:51;;;;;;;4.45;0.60;;;17.60;99.90;;;;;;5021450;28;20492;-65
2022/10/28 12:31:31;;;;;;;2.00;0.28;;;18.00;99.90;;;;;;5027148;28;20501;-61
2022/10/28 12:34:03;;;;;;;2.17;0.30;;;18.50;99.90;;;;;;5028306;28;20045;-64
2022/10/28 12:36:54;;;;;;;2.97;0.30;;;19.00;99.90;;;;;;5026565;28;20501;-60
2022/10/28 12:39:30;;;;;;;2.05;0.30;;;19.50;99.90;;;;;;5019682;28;20058;-60
2022/10/28 12:42:13;;;;;;;2.33;0.22;;;20.00;99.90;;;;;;5008718;28;20046;-60
2022/10/28 12:44:41;;;;;;;2.72;0.68;;;20.10;99.90;;;;;;5008774;28;20046;-66
2022/10/28 12:47:37;;;;;;;1.13;0.30;;;20.20;99.90;;;;;;5008721;28;20049;-60
2022/10/28 12:50:16;;;;;;;;;;;20.40;99.90;;;;;;5009057;28;20061;-61
2022/10/28 12:52:55;;;;;;;6.18;0.50;;;20.70;99.90;;;;;;5011897;28;19932;-61
2022/10/28 12:55:30;;;;;;;1.33;0.30;;;20.60;99.90;;;;;;5010082;28;20049;-60
2022/10/28 12:58:22;;;;;;;4.13;0.32;;;20.10;99.90;;;;;;5027059;28;20048;-68
2022/10/28 13:01:30;;;;;;;4.85;0.40;;;19.60;99.90;;;;;;5028018;28;20581;-64
2022/10/28 13:03:58;;;;;;;1.55;0.40;;;18.80;99.90;;;;;;5024928;28;20092;-67
2022/10/28 13:06:45;;;;;;;3.60;0.35;;;18.30;99.90;;;;;;5009290;28;20457;-59
2022/10/28 13:09:22;;;;;;;1.40;0.30;;;17.90;99.90;;;;;;5014228;28;20041;-62
2022/10/28 13:12:08;;;;;;;1.63;0.30;;;17.50;99.90;;;;;;5008639;28;20049;-62
2022/10/28 13:15:13;;;;;;;1.70;0.40;;;17.00;99.90;;;;;;5022492;28;20053;-60
2022/10/28 13:17:49;;;;;;;2.28;0.25;;;16.90;99.90;;;;;;5012104;28;20068;-60